sensor_id;sensor_type;location;lat;lon;timestamp;P1;durP1;ratioP1;P2;durP2;ratioP2
38479;SDS011;62333;51.980;5.934;2024-02-15T00:00:47;6.78;;;6.07;;
38479;SDS011;62333;51.980;5.934;2024-02-15T00:03:13;6.45;;;5.47;;
38479;SDS011;62333;51.980;5.934;2024-02-15T00:05:39;8.50;;;6.68;;
38479;SDS011;62333;51.980;5.934;2024-02-15T00:08:05;8.05;;;5.97;;
38479;SDS011;62333;51.980;5.934;2024-02-15T00:10:31;7.25;;;5.82;;
38479;SDS011;62333;51.980;5.934;2024-02-15T00:12:57;7.28;;;6.13;;
38479;SDS011;62333;51.980;5.934;2024-02-15T00:15:23;6.72;;;6.00;;
38479;SDS011;62333;51.980;5.934;2024-02-15T00:17:49;6.68;;;5.82;;
38479;SDS011;62333;51.980;5.934;2024-02-15T00:20:15;9.85;;;6.78;;
38479;SDS011;62333;51.980;5.934;2024-02-15T00:22:42;9.23;;;5.65;;
38479;SDS011;62333;51.980;5.934;2024-02-15T00:25:08;6.35;;;4.95;;
38479;SDS011;62333;51.980;5.934;2024-02-15T00:27:36;6.35;;;5.75;;
38479;SDS011;62333;51.980;5.934;2024-02-15T00:30:02;8.27;;;6.07;;
38479;SDS011;62333;51.980;5.934;2024-02-15T00:32:30;7.68;;;5.88;;
38479;SDS011;62333;51.980;5.934;2024-02-15T00:34:55;7.70;;;6.90;;
38479;SDS011;62333;51.980;5.934;2024-02-15T00:37:21;8.45;;;6.65;;
38479;SDS011;62333;51.980;5.934;2024-02-15T00:39:47;8.30;;;7.10;;
38479;SDS011;62333;51.980;5.934;2024-02-15T00:42:13;10.80;;;9.00;;
38479;SDS011;62333;51.980;5.934;2024-02-15T00:44:40;8.30;;;6.88;;
38479;SDS011;62333;51.980;5.934;2024-02-15T00:47:07;8.48;;;6.60;;
38479;SDS011;62333;51.980;5.934;2024-02-15T00:49:34;9.23;;;7.38;;
38479;SDS011;62333;51.980;5.934;2024-02-15T00:52:00;8.38;;;6.78;;
38479;SDS011;62333;51.980;5.934;2024-02-15T00:54:26;10.95;;;8.10;;
38479;SDS011;62333;51.980;5.934;2024-02-15T00:56:52;10.65;;;9.43;;
38479;SDS011;62333;51.980;5.934;2024-02-15T00:59:17;12.65;;;8.73;;
38479;SDS011;62333;51.980;5.934;2024-02-15T01:01:43;10.43;;;9.32;;
38479;SDS011;62333;51.980;5.934;2024-02-15T01:04:09;11.32;;;9.23;;
38479;SDS011;62333;51.980;5.934;2024-02-15T01:06:35;8.25;;;7.45;;
38479;SDS011;62333;51.980;5.934;2024-02-15T01:09:01;7.75;;;6.95;;
38479;SDS011;62333;51.980;5.934;2024-02-15T01:11:28;7.72;;;6.50;;
38479;SDS011;62333;51.980;5.934;2024-02-15T01:13:55;9.82;;;7.47;;
38479;SDS011;62333;51.980;5.934;2024-02-15T01:16:20;9.88;;;7.28;;
38479;SDS011;62333;51.980;5.934;2024-02-15T01:18:49;8.73;;;7.28;;
38479;SDS011;62333;51.980;5.934;2024-02-15T01:21:15;13.30;;;10.10;;
38479;SDS011;62333;51.980;5.934;2024-02-15T01:23:42;10.15;;;7.18;;
38479;SDS011;62333;51.980;5.934;2024-02-15T01:26:07;10.13;;;6.75;;
38479;SDS011;62333;51.980;5.934;2024-02-15T01:28:33;6.15;;;5.28;;
38479;SDS011;62333;51.980;5.934;2024-02-15T01:30:59;7.38;;;4.88;;
38479;SDS011;62333;51.980;5.934;2024-02-15T01:33:25;7.72;;;6.32;;
38479;SDS011;62333;51.980;5.934;2024-02-15T01:35:50;7.28;;;5.32;;
38479;SDS011;62333;51.980;5.934;2024-02-15T01:38:16;8.43;;;5.63;;
38479;SDS011;62333;51.980;5.934;2024-02-15T01:40:41;6.18;;;4.70;;
38479;SDS011;62333;51.980;5.934;2024-02-15T01:43:07;8.52;;;5.53;;
38479;SDS011;62333;51.980;5.934;2024-02-15T01:45:33;11.05;;;5.40;;
38479;SDS011;62333;51.980;5.934;2024-02-15T01:47:59;6.47;;;4.63;;
38479;SDS011;62333;51.980;5.934;2024-02-15T01:50:28;6.85;;;4.45;;
38479;SDS011;62333;51.980;5.934;2024-02-15T01:52:54;4.60;;;3.83;;
38479;SDS011;62333;51.980;5.934;2024-02-15T01:55:22;9.07;;;3.78;;
38479;SDS011;62333;51.980;5.934;2024-02-15T01:57:48;7.50;;;5.35;;
38479;SDS011;62333;51.980;5.934;2024-02-15T02:00:17;10.30;;;6.70;;
38479;SDS011;62333;51.980;5.934;2024-02-15T02:02:44;7.07;;;4.88;;
38479;SDS011;62333;51.980;5.934;2024-02-15T02:05:10;4.47;;;3.25;;
38479;SDS011;62333;51.980;5.934;2024-02-15T02:07:36;8.20;;;4.00;;
38479;SDS011;62333;51.980;5.934;2024-02-15T02:10:02;7.00;;;3.42;;
38479;SDS011;62333;51.980;5.934;2024-02-15T02:12:29;6.65;;;4.43;;
38479;SDS011;62333;51.980;5.934;2024-02-15T02:14:55;12.82;;;4.82;;
38479;SDS011;62333;51.980;5.934;2024-02-15T02:17:20;6.63;;;4.05;;
38479;SDS011;62333;51.980;5.934;2024-02-15T02:19:46;6.25;;;3.70;;
38479;SDS011;62333;51.980;5.934;2024-02-15T02:22:14;7.60;;;3.97;;
38479;SDS011;62333;51.980;5.934;2024-02-15T02:29:59;7.00;;;3.03;;
38479;SDS011;62333;51.980;5.934;2024-02-15T02:32:25;4.65;;;2.78;;
38479;SDS011;62333;51.980;5.934;2024-02-15T02:34:51;6.35;;;4.03;;
38479;SDS011;62333;51.980;5.934;2024-02-15T02:37:25;5.97;;;2.38;;
38479;SDS011;62333;51.980;5.934;2024-02-15T02:39:51;9.65;;;4.07;;
38479;SDS011;62333;51.980;5.934;2024-02-15T02:42:17;3.92;;;2.38;;
38479;SDS011;62333;51.980;5.934;2024-02-15T02:44:43;5.25;;;3.20;;
38479;SDS011;62333;51.980;5.934;2024-02-15T02:47:09;5.80;;;3.53;;
38479;SDS011;62333;51.980;5.934;2024-02-15T02:49:35;4.68;;;3.88;;
38479;SDS011;62333;51.980;5.934;2024-02-15T02:52:01;9.57;;;4.13;;
38479;SDS011;62333;51.980;5.934;2024-02-15T02:54:28;5.25;;;3.05;;
38479;SDS011;62333;51.980;5.934;2024-02-15T02:56:54;4.72;;;3.05;;
38479;SDS011;62333;51.980;5.934;2024-02-15T02:59:20;8.77;;;4.43;;
38479;SDS011;62333;51.980;5.934;2024-02-15T03:01:46;8.10;;;3.55;;
38479;SDS011;62333;51.980;5.934;2024-02-15T03:04:14;4.38;;;2.83;;
38479;SDS011;62333;51.980;5.934;2024-02-15T03:06:42;16.85;;;2.88;;
38479;SDS011;62333;51.980;5.934;2024-02-15T03:09:08;6.00;;;3.45;;
38479;SDS011;62333;51.980;5.934;2024-02-15T03:11:34;6.63;;;3.55;;
38479;SDS011;62333;51.980;5.934;2024-02-15T03:14:00;3.92;;;2.35;;
38479;SDS011;62333;51.980;5.934;2024-02-15T03:16:29;5.45;;;2.47;;
38479;SDS011;62333;51.980;5.934;2024-02-15T03:18:55;8.38;;;3.38;;
38479;SDS011;62333;51.980;5.934;2024-02-15T03:21:21;6.10;;;2.35;;
38479;SDS011;62333;51.980;5.934;2024-02-15T03:23:46;5.72;;;4.25;;
38479;SDS011;62333;51.980;5.934;2024-02-15T03:26:12;6.50;;;4.38;;
38479;SDS011;62333;51.980;5.934;2024-02-15T03:28:39;13.48;;;4.07;;
38479;SDS011;62333;51.980;5.934;2024-02-15T03:31:04;10.45;;;3.17;;
38479;SDS011;62333;51.980;5.934;2024-02-15T03:33:30;8.40;;;3.28;;
38479;SDS011;62333;51.980;5.934;2024-02-15T03:35:59;9.35;;;2.85;;
38479;SDS011;62333;51.980;5.934;2024-02-15T03:38:26;4.28;;;2.05;;
38479;SDS011;62333;51.980;5.934;2024-02-15T03:40:54;6.88;;;3.65;;
38479;SDS011;62333;51.980;5.934;2024-02-15T03:43:20;4.60;;;1.90;;
38479;SDS011;62333;51.980;5.934;2024-02-15T03:45:47;6.63;;;2.17;;
38479;SDS011;62333;51.980;5.934;2024-02-15T03:48:13;4.80;;;2.67;;
38479;SDS011;62333;51.980;5.934;2024-02-15T03:50:39;4.75;;;2.50;;
38479;SDS011;62333;51.980;5.934;2024-02-15T03:53:05;6.93;;;1.90;;
38479;SDS011;62333;51.980;5.934;2024-02-15T03:55:31;4.60;;;2.60;;
38479;SDS011;62333;51.980;5.934;2024-02-15T03:57:58;6.43;;;2.15;;
38479;SDS011;62333;51.980;5.934;2024-02-15T04:00:24;6.18;;;2.28;;
38479;SDS011;62333;51.980;5.934;2024-02-15T04:02:50;6.88;;;2.03;;
38479;SDS011;62333;51.980;5.934;2024-02-15T04:05:15;4.60;;;1.73;;
38479;SDS011;62333;51.980;5.934;2024-02-15T04:07:43;4.22;;;1.77;;
38479;SDS011;62333;51.980;5.934;2024-02-15T04:10:09;7.78;;;2.10;;
38479;SDS011;62333;51.980;5.934;2024-02-15T04:12:35;3.78;;;1.92;;
38479;SDS011;62333;51.980;5.934;2024-02-15T04:15:01;8.60;;;2.25;;
38479;SDS011;62333;51.980;5.934;2024-02-15T04:17:36;7.68;;;1.92;;
38479;SDS011;62333;51.980;5.934;2024-02-15T04:20:05;7.07;;;2.22;;
38479;SDS011;62333;51.980;5.934;2024-02-15T04:22:32;5.32;;;1.88;;
38479;SDS011;62333;51.980;5.934;2024-02-15T04:25:04;4.10;;;1.45;;
38479;SDS011;62333;51.980;5.934;2024-02-15T04:27:31;7.47;;;2.40;;
38479;SDS011;62333;51.980;5.934;2024-02-15T04:29:57;7.82;;;2.33;;
38479;SDS011;62333;51.980;5.934;2024-02-15T04:32:24;4.90;;;1.25;;
38479;SDS011;62333;51.980;5.934;2024-02-15T04:34:49;5.40;;;1.77;;
38479;SDS011;62333;51.980;5.934;2024-02-15T04:37:16;5.95;;;1.65;;
38479;SDS011;62333;51.980;5.934;2024-02-15T04:39:43;8.90;;;3.35;;
38479;SDS011;62333;51.980;5.934;2024-02-15T04:42:08;3.95;;;0.80;;
38479;SDS011;62333;51.980;5.934;2024-02-15T04:44:39;8.10;;;1.55;;
38479;SDS011;62333;51.980;5.934;2024-02-15T04:47:05;3.05;;;0.90;;
38479;SDS011;62333;51.980;5.934;2024-02-15T04:49:31;6.47;;;1.88;;
38479;SDS011;62333;51.980;5.934;2024-02-15T04:51:57;6.03;;;1.35;;
38479;SDS011;62333;51.980;5.934;2024-02-15T04:54:23;4.28;;;1.70;;
38479;SDS011;62333;51.980;5.934;2024-02-15T04:56:49;7.53;;;1.92;;
38479;SDS011;62333;51.980;5.934;2024-02-15T04:59:19;2.60;;;1.30;;
38479;SDS011;62333;51.980;5.934;2024-02-15T05:01:46;3.03;;;0.80;;
38479;SDS011;62333;51.980;5.934;2024-02-15T05:04:14;5.07;;;2.03;;
38479;SDS011;62333;51.980;5.934;2024-02-15T05:06:40;3.58;;;1.13;;
38479;SDS011;62333;51.980;5.934;2024-02-15T05:09:06;3.90;;;1.25;;
38479;SDS011;62333;51.980;5.934;2024-02-15T05:11:37;10.30;;;2.60;;
38479;SDS011;62333;51.980;5.934;2024-02-15T05:14:06;3.97;;;0.88;;
38479;SDS011;62333;51.980;5.934;2024-02-15T05:16:35;4.38;;;1.95;;
38479;SDS011;62333;51.980;5.934;2024-02-15T05:19:07;5.32;;;1.60;;
38479;SDS011;62333;51.980;5.934;2024-02-15T05:21:38;5.35;;;0.90;;
38479;SDS011;62333;51.980;5.934;2024-02-15T05:24:04;3.53;;;1.27;;
38479;SDS011;62333;51.980;5.934;2024-02-15T05:26:30;4.75;;;1.20;;
38479;SDS011;62333;51.980;5.934;2024-02-15T05:28:56;4.90;;;1.67;;
38479;SDS011;62333;51.980;5.934;2024-02-15T05:31:22;4.55;;;1.48;;
38479;SDS011;62333;51.980;5.934;2024-02-15T05:33:51;4.97;;;0.95;;
38479;SDS011;62333;51.980;5.934;2024-02-15T05:36:18;4.88;;;0.88;;
38479;SDS011;62333;51.980;5.934;2024-02-15T05:38:49;6.30;;;1.10;;
38479;SDS011;62333;51.980;5.934;2024-02-15T05:41:16;3.30;;;0.80;;
38479;SDS011;62333;51.980;5.934;2024-02-15T05:43:42;4.32;;;1.05;;
38479;SDS011;62333;51.980;5.934;2024-02-15T05:46:08;5.43;;;0.88;;
38479;SDS011;62333;51.980;5.934;2024-02-15T05:48:35;2.97;;;1.13;;
38479;SDS011;62333;51.980;5.934;2024-02-15T05:51:05;9.07;;;2.50;;
38479;SDS011;62333;51.980;5.934;2024-02-15T05:53:32;2.70;;;1.05;;
38479;SDS011;62333;51.980;5.934;2024-02-15T05:56:01;5.00;;;1.42;;
38479;SDS011;62333;51.980;5.934;2024-02-15T05:58:29;4.30;;;0.82;;
38479;SDS011;62333;51.980;5.934;2024-02-15T06:00:55;3.72;;;1.45;;
38479;SDS011;62333;51.980;5.934;2024-02-15T06:03:26;5.65;;;2.78;;
38479;SDS011;62333;51.980;5.934;2024-02-15T06:05:56;5.10;;;1.90;;
38479;SDS011;62333;51.980;5.934;2024-02-15T06:08:26;9.00;;;1.35;;
38479;SDS011;62333;51.980;5.934;2024-02-15T06:10:54;7.55;;;1.75;;
38479;SDS011;62333;51.980;5.934;2024-02-15T06:13:20;6.20;;;1.35;;
38479;SDS011;62333;51.980;5.934;2024-02-15T06:15:47;5.95;;;1.45;;
38479;SDS011;62333;51.980;5.934;2024-02-15T06:18:17;7.68;;;1.70;;
38479;SDS011;62333;51.980;5.934;2024-02-15T06:20:46;6.07;;;1.83;;
38479;SDS011;62333;51.980;5.934;2024-02-15T06:23:15;7.00;;;2.42;;
38479;SDS011;62333;51.980;5.934;2024-02-15T06:25:44;4.45;;;1.70;;
38479;SDS011;62333;51.980;5.934;2024-02-15T06:28:10;6.20;;;2.35;;
38479;SDS011;62333;51.980;5.934;2024-02-15T06:30:45;7.55;;;1.70;;
38479;SDS011;62333;51.980;5.934;2024-02-15T06:33:29;5.30;;;1.05;;
38479;SDS011;62333;51.980;5.934;2024-02-15T06:36:13;5.03;;;1.38;;
38479;SDS011;62333;51.980;5.934;2024-02-15T06:38:57;5.88;;;2.42;;
38479;SDS011;62333;51.980;5.934;2024-02-15T06:41:41;3.17;;;0.90;;
38479;SDS011;62333;51.980;5.934;2024-02-15T06:44:07;2.58;;;0.70;;
38479;SDS011;62333;51.980;5.934;2024-02-15T06:46:33;2.40;;;1.23;;
38479;SDS011;62333;51.980;5.934;2024-02-15T06:48:58;6.65;;;1.25;;
38479;SDS011;62333;51.980;5.934;2024-02-15T06:51:24;6.40;;;0.68;;
38479;SDS011;62333;51.980;5.934;2024-02-15T06:53:50;4.85;;;1.23;;
38479;SDS011;62333;51.980;5.934;2024-02-15T06:56:16;5.60;;;1.83;;
38479;SDS011;62333;51.980;5.934;2024-02-15T06:58:45;3.58;;;0.95;;
38479;SDS011;62333;51.980;5.934;2024-02-15T07:01:11;5.25;;;1.00;;
38479;SDS011;62333;51.980;5.934;2024-02-15T07:03:38;3.72;;;1.13;;
38479;SDS011;62333;51.980;5.934;2024-02-15T07:06:04;5.60;;;1.75;;
38479;SDS011;62333;51.980;5.934;2024-02-15T07:08:31;7.07;;;1.40;;
38479;SDS011;62333;51.980;5.934;2024-02-15T07:10:57;5.15;;;1.63;;
38479;SDS011;62333;51.980;5.934;2024-02-15T07:13:23;6.88;;;1.58;;
38479;SDS011;62333;51.980;5.934;2024-02-15T07:15:51;3.92;;;1.45;;
38479;SDS011;62333;51.980;5.934;2024-02-15T07:18:17;3.17;;;1.00;;
38479;SDS011;62333;51.980;5.934;2024-02-15T07:20:47;4.00;;;1.10;;
38479;SDS011;62333;51.980;5.934;2024-02-15T07:23:13;2.83;;;0.65;;
38479;SDS011;62333;51.980;5.934;2024-02-15T07:25:39;2.85;;;1.05;;
38479;SDS011;62333;51.980;5.934;2024-02-15T07:28:06;4.10;;;0.88;;
38479;SDS011;62333;51.980;5.934;2024-02-15T07:30:33;3.53;;;1.98;;
38479;SDS011;62333;51.980;5.934;2024-02-15T07:32:59;6.30;;;0.85;;
38479;SDS011;62333;51.980;5.934;2024-02-15T07:35:25;4.05;;;1.00;;
38479;SDS011;62333;51.980;5.934;2024-02-15T07:37:51;5.28;;;1.35;;
38479;SDS011;62333;51.980;5.934;2024-02-15T07:40:18;4.72;;;1.10;;
38479;SDS011;62333;51.980;5.934;2024-02-15T07:42:47;4.80;;;0.95;;
38479;SDS011;62333;51.980;5.934;2024-02-15T07:45:13;3.45;;;1.35;;
38479;SDS011;62333;51.980;5.934;2024-02-15T07:47:39;4.65;;;1.45;;
38479;SDS011;62333;51.980;5.934;2024-02-15T07:50:04;2.67;;;1.15;;
38479;SDS011;62333;51.980;5.934;2024-02-15T07:52:30;2.50;;;0.75;;
38479;SDS011;62333;51.980;5.934;2024-02-15T07:54:57;2.53;;;0.80;;
38479;SDS011;62333;51.980;5.934;2024-02-15T07:57:22;3.38;;;1.40;;
38479;SDS011;62333;51.980;5.934;2024-02-15T07:59:49;3.80;;;1.13;;
38479;SDS011;62333;51.980;5.934;2024-02-15T08:02:15;2.78;;;0.70;;
38479;SDS011;62333;51.980;5.934;2024-02-15T08:04:47;2.38;;;0.70;;
38479;SDS011;62333;51.980;5.934;2024-02-15T08:07:13;2.10;;;0.80;;
38479;SDS011;62333;51.980;5.934;2024-02-15T08:09:39;3.30;;;0.75;;
38479;SDS011;62333;51.980;5.934;2024-02-15T08:12:07;2.08;;;0.60;;
38479;SDS011;62333;51.980;5.934;2024-02-15T08:14:33;1.30;;;0.50;;
38479;SDS011;62333;51.980;5.934;2024-02-15T08:16:59;2.50;;;0.70;;
38479;SDS011;62333;51.980;5.934;2024-02-15T08:19:25;4.57;;;1.08;;
38479;SDS011;62333;51.980;5.934;2024-02-15T08:21:53;2.90;;;0.63;;
38479;SDS011;62333;51.980;5.934;2024-02-15T08:24:19;2.25;;;0.80;;
38479;SDS011;62333;51.980;5.934;2024-02-15T08:26:45;2.90;;;0.70;;
38479;SDS011;62333;51.980;5.934;2024-02-15T08:29:10;2.05;;;0.70;;
38479;SDS011;62333;51.980;5.934;2024-02-15T08:31:36;2.30;;;1.02;;
38479;SDS011;62333;51.980;5.934;2024-02-15T08:34:02;1.30;;;0.60;;
38479;SDS011;62333;51.980;5.934;2024-02-15T08:36:30;2.10;;;1.15;;
38479;SDS011;62333;51.980;5.934;2024-02-15T08:38:56;1.95;;;0.63;;
38479;SDS011;62333;51.980;5.934;2024-02-15T08:41:22;2.45;;;0.60;;
38479;SDS011;62333;51.980;5.934;2024-02-15T08:43:51;1.38;;;0.40;;
38479;SDS011;62333;51.980;5.934;2024-02-15T08:46:17;1.80;;;0.88;;
38479;SDS011;62333;51.980;5.934;2024-02-15T08:48:44;2.30;;;0.80;;
38479;SDS011;62333;51.980;5.934;2024-02-15T08:51:11;2.75;;;1.15;;
38479;SDS011;62333;51.980;5.934;2024-02-15T08:53:37;2.03;;;0.70;;
38479;SDS011;62333;51.980;5.934;2024-02-15T08:56:06;1.75;;;0.85;;
38479;SDS011;62333;51.980;5.934;2024-02-15T08:58:33;1.73;;;0.65;;
38479;SDS011;62333;51.980;5.934;2024-02-15T09:01:00;1.33;;;0.60;;
38479;SDS011;62333;51.980;5.934;2024-02-15T09:03:25;2.75;;;0.88;;
38479;SDS011;62333;51.980;5.934;2024-02-15T09:05:51;1.17;;;0.55;;
38479;SDS011;62333;51.980;5.934;2024-02-15T09:08:16;1.10;;;0.50;;
38479;SDS011;62333;51.980;5.934;2024-02-15T09:10:46;1.77;;;0.50;;
38479;SDS011;62333;51.980;5.934;2024-02-15T09:13:12;4.68;;;0.88;;
38479;SDS011;62333;51.980;5.934;2024-02-15T09:15:39;2.15;;;1.02;;
38479;SDS011;62333;51.980;5.934;2024-02-15T09:18:06;1.30;;;0.52;;
38479;SDS011;62333;51.980;5.934;2024-02-15T09:20:34;1.67;;;0.60;;
38479;SDS011;62333;51.980;5.934;2024-02-15T09:23:02;6.13;;;1.17;;
38479;SDS011;62333;51.980;5.934;2024-02-15T09:28:01;2.17;;;0.70;;
38479;SDS011;62333;51.980;5.934;2024-02-15T09:30:28;3.97;;;0.50;;
38479;SDS011;62333;51.980;5.934;2024-02-15T09:32:56;1.67;;;0.60;;
38479;SDS011;62333;51.980;5.934;2024-02-15T09:35:22;2.80;;;0.60;;
38479;SDS011;62333;51.980;5.934;2024-02-15T09:37:48;2.03;;;0.60;;
38479;SDS011;62333;51.980;5.934;2024-02-15T09:40:14;1.52;;;0.50;;
38479;SDS011;62333;51.980;5.934;2024-02-15T09:42:42;3.97;;;0.80;;
38479;SDS011;62333;51.980;5.934;2024-02-15T09:45:12;1.80;;;0.50;;
38479;SDS011;62333;51.980;5.934;2024-02-15T09:47:39;8.18;;;1.05;;
38479;SDS011;62333;51.980;5.934;2024-02-15T09:50:12;2.53;;;0.70;;
38479;SDS011;62333;51.980;5.934;2024-02-15T09:52:39;3.63;;;0.95;;
38479;SDS011;62333;51.980;5.934;2024-02-15T09:55:08;5.20;;;1.02;;
38479;SDS011;62333;51.980;5.934;2024-02-15T09:57:38;2.25;;;0.85;;
38479;SDS011;62333;51.980;5.934;2024-02-15T10:00:08;2.33;;;0.60;;
38479;SDS011;62333;51.980;5.934;2024-02-15T10:02:38;4.45;;;0.70;;
38479;SDS011;62333;51.980;5.934;2024-02-15T10:05:06;2.55;;;1.33;;
38479;SDS011;62333;51.980;5.934;2024-02-15T10:07:39;4.05;;;0.65;;
38479;SDS011;62333;51.980;5.934;2024-02-15T10:10:27;4.82;;;1.33;;
38479;SDS011;62333;51.980;5.934;2024-02-15T10:12:52;6.93;;;1.15;;
38479;SDS011;62333;51.980;5.934;2024-02-15T10:18:00;3.45;;;1.00;;
38479;SDS011;62333;51.980;5.934;2024-02-15T10:20:26;4.05;;;0.90;;
38479;SDS011;62333;51.980;5.934;2024-02-15T10:23:14;5.32;;;0.70;;
38479;SDS011;62333;51.980;5.934;2024-02-15T10:25:43;3.35;;;1.45;;
38479;SDS011;62333;51.980;5.934;2024-02-15T10:28:12;8.48;;;1.05;;
38479;SDS011;62333;51.980;5.934;2024-02-15T10:30:43;4.95;;;1.30;;
38479;SDS011;62333;51.980;5.934;2024-02-15T10:33:17;5.20;;;0.90;;
38479;SDS011;62333;51.980;5.934;2024-02-15T10:35:47;3.65;;;0.93;;
38479;SDS011;62333;51.980;5.934;2024-02-15T10:38:13;6.32;;;1.52;;
38479;SDS011;62333;51.980;5.934;2024-02-15T10:40:40;3.28;;;0.80;;
38479;SDS011;62333;51.980;5.934;2024-02-15T10:43:07;3.58;;;1.15;;
38479;SDS011;62333;51.980;5.934;2024-02-15T10:45:37;5.25;;;0.90;;
38479;SDS011;62333;51.980;5.934;2024-02-15T10:48:05;3.33;;;0.75;;
38479;SDS011;62333;51.980;5.934;2024-02-15T10:50:33;3.35;;;0.75;;
38479;SDS011;62333;51.980;5.934;2024-02-15T10:52:59;2.85;;;0.73;;
38479;SDS011;62333;51.980;5.934;2024-02-15T10:58:01;5.72;;;1.17;;
38479;SDS011;62333;51.980;5.934;2024-02-15T11:00:32;1.73;;;0.52;;
38479;SDS011;62333;51.980;5.934;2024-02-15T11:03:02;4.22;;;1.20;;
38479;SDS011;62333;51.980;5.934;2024-02-15T11:05:33;2.92;;;0.82;;
38479;SDS011;62333;51.980;5.934;2024-02-15T11:08:09;3.53;;;0.60;;
38479;SDS011;62333;51.980;5.934;2024-02-15T11:10:36;4.50;;;0.80;;
38479;SDS011;62333;51.980;5.934;2024-02-15T11:13:03;4.15;;;0.68;;
38479;SDS011;62333;51.980;5.934;2024-02-15T11:18:02;3.75;;;1.05;;
38479;SDS011;62333;51.980;5.934;2024-02-15T11:22:57;2.83;;;0.88;;
38479;SDS011;62333;51.980;5.934;2024-02-15T11:25:33;2.33;;;0.80;;
38479;SDS011;62333;51.980;5.934;2024-02-15T11:30:54;3.38;;;1.02;;
38479;SDS011;62333;51.980;5.934;2024-02-15T11:33:33;5.22;;;0.82;;
38479;SDS011;62333;51.980;5.934;2024-02-15T11:36:04;6.28;;;1.10;;
38479;SDS011;62333;51.980;5.934;2024-02-15T11:38:31;6.78;;;1.52;;
38479;SDS011;62333;51.980;5.934;2024-02-15T11:41:01;3.63;;;0.95;;
38479;SDS011;62333;51.980;5.934;2024-02-15T11:46:17;2.38;;;0.73;;
38479;SDS011;62333;51.980;5.934;2024-02-15T11:48:47;4.45;;;1.42;;
38479;SDS011;62333;51.980;5.934;2024-02-15T11:51:32;2.50;;;0.70;;
38479;SDS011;62333;51.980;5.934;2024-02-15T11:54:05;3.70;;;0.70;;
38479;SDS011;62333;51.980;5.934;2024-02-15T11:56:54;4.75;;;1.13;;
38479;SDS011;62333;51.980;5.934;2024-02-15T11:59:38;2.45;;;0.52;;
38479;SDS011;62333;51.980;5.934;2024-02-15T12:02:39;2.28;;;0.50;;
38479;SDS011;62333;51.980;5.934;2024-02-15T12:05:23;4.95;;;1.08;;
38479;SDS011;62333;51.980;5.934;2024-02-15T12:08:07;1.45;;;0.52;;
38479;SDS011;62333;51.980;5.934;2024-02-15T12:11:14;2.80;;;0.80;;
38479;SDS011;62333;51.980;5.934;2024-02-15T12:13:58;2.60;;;1.02;;
38479;SDS011;62333;51.980;5.934;2024-02-15T12:16:42;2.80;;;1.10;;
38479;SDS011;62333;51.980;5.934;2024-02-15T12:19:26;2.45;;;0.80;;
38479;SDS011;62333;51.980;5.934;2024-02-15T12:21:52;1.83;;;0.80;;
38479;SDS011;62333;51.980;5.934;2024-02-15T12:24:19;3.65;;;1.10;;
38479;SDS011;62333;51.980;5.934;2024-02-15T12:26:50;3.10;;;0.93;;
38479;SDS011;62333;51.980;5.934;2024-02-15T12:29:16;3.05;;;0.93;;
38479;SDS011;62333;51.980;5.934;2024-02-15T12:31:43;2.92;;;0.80;;
38479;SDS011;62333;51.980;5.934;2024-02-15T12:34:09;4.20;;;1.13;;
38479;SDS011;62333;51.980;5.934;2024-02-15T12:36:35;3.13;;;1.05;;
38479;SDS011;62333;51.980;5.934;2024-02-15T12:39:03;2.53;;;0.80;;
38479;SDS011;62333;51.980;5.934;2024-02-15T12:41:39;2.08;;;0.60;;
38479;SDS011;62333;51.980;5.934;2024-02-15T12:44:08;6.78;;;1.95;;
38479;SDS011;62333;51.980;5.934;2024-02-15T12:46:35;4.95;;;1.10;;
38479;SDS011;62333;51.980;5.934;2024-02-15T12:49:45;5.03;;;1.33;;
38479;SDS011;62333;51.980;5.934;2024-02-15T12:51:52;2.03;;;0.50;;
38479;SDS011;62333;51.980;5.934;2024-02-15T12:54:20;1.60;;;0.40;;
38479;SDS011;62333;51.980;5.934;2024-02-15T12:56:46;5.35;;;1.45;;
38479;SDS011;62333;51.980;5.934;2024-02-15T13:01:48;3.95;;;0.70;;
38479;SDS011;62333;51.980;5.934;2024-02-15T13:04:23;2.05;;;0.43;;
38479;SDS011;62333;51.980;5.934;2024-02-15T13:06:53;3.40;;;1.40;;
38479;SDS011;62333;51.980;5.934;2024-02-15T13:09:19;1.73;;;0.50;;
38479;SDS011;62333;51.980;5.934;2024-02-15T13:11:47;1.45;;;0.50;;
38479;SDS011;62333;51.980;5.934;2024-02-15T13:14:15;1.92;;;0.50;;
38479;SDS011;62333;51.980;5.934;2024-02-15T13:16:40;4.72;;;0.82;;
38479;SDS011;62333;51.980;5.934;2024-02-15T13:19:08;3.42;;;0.50;;
38479;SDS011;62333;51.980;5.934;2024-02-15T13:21:33;2.60;;;0.55;;
38479;SDS011;62333;51.980;5.934;2024-02-15T13:23:59;2.25;;;0.63;;
38479;SDS011;62333;51.980;5.934;2024-02-15T13:26:31;6.43;;;0.47;;
38479;SDS011;62333;51.980;5.934;2024-02-15T13:28:59;2.10;;;0.52;;
38479;SDS011;62333;51.980;5.934;2024-02-15T13:31:24;2.42;;;0.63;;
38479;SDS011;62333;51.980;5.934;2024-02-15T13:33:52;6.15;;;1.00;;
38479;SDS011;62333;51.980;5.934;2024-02-15T13:36:18;1.88;;;0.40;;
38479;SDS011;62333;51.980;5.934;2024-02-15T13:38:44;3.47;;;0.65;;
38479;SDS011;62333;51.980;5.934;2024-02-15T13:41:10;4.75;;;0.63;;
38479;SDS011;62333;51.980;5.934;2024-02-15T13:43:36;1.33;;;0.40;;
38479;SDS011;62333;51.980;5.934;2024-02-15T13:46:02;2.78;;;0.55;;
38479;SDS011;62333;51.980;5.934;2024-02-15T13:48:29;2.58;;;0.52;;
38479;SDS011;62333;51.980;5.934;2024-02-15T13:50:55;1.25;;;0.45;;
38479;SDS011;62333;51.980;5.934;2024-02-15T13:53:21;3.38;;;0.70;;
38479;SDS011;62333;51.980;5.934;2024-02-15T13:55:47;3.55;;;0.80;;
38479;SDS011;62333;51.980;5.934;2024-02-15T13:58:13;2.88;;;0.70;;
38479;SDS011;62333;51.980;5.934;2024-02-15T14:00:39;2.35;;;0.70;;
38479;SDS011;62333;51.980;5.934;2024-02-15T14:03:07;4.90;;;0.95;;
38479;SDS011;62333;51.980;5.934;2024-02-15T14:05:35;4.55;;;1.23;;
38479;SDS011;62333;51.980;5.934;2024-02-15T14:08:02;2.88;;;0.65;;
38479;SDS011;62333;51.980;5.934;2024-02-15T14:10:29;4.15;;;1.05;;
38479;SDS011;62333;51.980;5.934;2024-02-15T14:12:56;2.10;;;0.70;;
38479;SDS011;62333;51.980;5.934;2024-02-15T14:15:26;3.20;;;1.17;;
38479;SDS011;62333;51.980;5.934;2024-02-15T14:17:53;2.90;;;0.98;;
38479;SDS011;62333;51.980;5.934;2024-02-15T14:20:20;3.53;;;1.38;;
38479;SDS011;62333;51.980;5.934;2024-02-15T14:22:47;2.42;;;0.75;;
38479;SDS011;62333;51.980;5.934;2024-02-15T14:25:14;3.28;;;0.80;;
38479;SDS011;62333;51.980;5.934;2024-02-15T14:27:40;2.60;;;1.13;;
38479;SDS011;62333;51.980;5.934;2024-02-15T14:30:07;4.88;;;0.77;;
38479;SDS011;62333;51.980;5.934;2024-02-15T14:32:52;3.53;;;1.77;;
38479;SDS011;62333;51.980;5.934;2024-02-15T14:35:30;4.50;;;1.00;;
38479;SDS011;62333;51.980;5.934;2024-02-15T14:38:03;5.07;;;1.13;;
38479;SDS011;62333;51.980;5.934;2024-02-15T14:40:39;1.75;;;0.50;;
38479;SDS011;62333;51.980;5.934;2024-02-15T14:43:06;3.75;;;1.25;;
38479;SDS011;62333;51.980;5.934;2024-02-15T14:48:04;2.85;;;0.60;;
38479;SDS011;62333;51.980;5.934;2024-02-15T14:50:30;3.55;;;0.70;;
38479;SDS011;62333;51.980;5.934;2024-02-15T14:52:55;7.07;;;1.50;;
38479;SDS011;62333;51.980;5.934;2024-02-15T14:55:21;3.38;;;0.45;;
38479;SDS011;62333;51.980;5.934;2024-02-15T14:57:47;3.60;;;0.60;;
38479;SDS011;62333;51.980;5.934;2024-02-15T15:00:13;2.42;;;0.75;;
38479;SDS011;62333;51.980;5.934;2024-02-15T15:02:42;2.42;;;0.60;;
38479;SDS011;62333;51.980;5.934;2024-02-15T15:05:13;2.30;;;0.68;;
38479;SDS011;62333;51.980;5.934;2024-02-15T15:07:58;3.28;;;1.00;;
38479;SDS011;62333;51.980;5.934;2024-02-15T15:10:44;1.88;;;0.65;;
38479;SDS011;62333;51.980;5.934;2024-02-15T15:13:29;2.53;;;0.60;;
38479;SDS011;62333;51.980;5.934;2024-02-15T15:15:56;2.53;;;0.95;;
38479;SDS011;62333;51.980;5.934;2024-02-15T15:18:22;1.35;;;0.40;;
38479;SDS011;62333;51.980;5.934;2024-02-15T15:20:47;2.10;;;0.65;;
38479;SDS011;62333;51.980;5.934;2024-02-15T15:23:13;2.95;;;0.50;;